Time,TemperatureF,DewpointF,PressureIn,WindDirection,WindDirectionDegrees,WindSpeedMPH,WindSpeedGustMPH,Humidity,HourlyPrecipIn,Conditions,Clouds,dailyrainin,SoftwareType,DateUTC
2013-11-03 00:03:00,33.0,32.0,-100.00,SSE,155,0.0,1.0,99,-99.99,,,-99.99,,2013-11-03 05:03:00,
2013-11-03 00:43:00,34.0,34.0,-100.00,SSE,150,1.0,6.0,99,-99.99,,,-99.99,,2013-11-03 05:43:00,
2013-11-03 00:53:00,34.0,34.0,-100.00,SSE,150,1.0,6.0,99,-99.99,,,-99.99,,2013-11-03 05:53:00,
2013-11-03 01:03:00,34.0,34.0,-100.00,SSE,150,1.0,6.0,99,-99.99,,,-99.99,,2013-11-03 06:03:00,
2013-11-03 01:43:00,33.0,33.0,-100.00,SSW,205,1.0,4.0,99,-99.99,,,-99.99,,2013-11-03 06:43:00,
2013-11-03 01:53:00,33.0,33.0,-100.00,SSW,205,1.0,4.0,99,-99.99,,,-99.99,,2013-11-03 06:53:00,
2013-11-03 01:01:00,33.0,33.0,-100.00,SSW,205,1.0,4.0,99,-99.99,,,-99.99,,2013-11-03 07:01:00,
2013-11-03 02:42:00,33.0,32.0,-100.00,South,185,3.0,7.0,99,-99.99,,,-99.99,,2013-11-03 08:42:00,
2013-11-03 02:52:00,33.0,32.0,-100.00,South,185,3.0,7.0,99,-99.99,,,-99.99,,2013-11-03 08:52:00,
2013-11-03 03:02:00,33.0,32.0,-100.00,South,185,3.0,7.0,99,-99.99,,,-99.99,,2013-11-03 09:02:00,
2013-11-03 03:22:00,33.0,32.0,-100.00,SSW,210,2.0,7.0,99,-99.99,,,-99.99,,2013-11-03 09:22:00,
2013-11-03 03:42:00,32.0,32.0,-100.00,SSW,195,3.0,10.0,99,-99.99,,,-99.99,,2013-11-03 09:42:00,
2013-11-03 03:53:00,32.0,32.0,-100.00,SSW,195,3.0,10.0,99,-99.99,,,-99.99,,2013-11-03 09:53:00,
2013-11-03 04:03:00,32.0,32.0,-100.00,SSW,195,3.0,10.0,99,-99.99,,,-99.99,,2013-11-03 10:03:00,
2013-11-03 05:43:00,32.0,32.0,-100.00,South,175,2.0,5.0,99,-99.99,,,-99.99,,2013-11-03 11:43:00,
2013-11-03 05:52:00,32.0,32.0,-100.00,South,175,2.0,5.0,99,-99.99,,,-99.99,,2013-11-03 11:52:00,
2013-11-03 06:02:00,32.0,32.0,-100.00,South,175,2.0,5.0,99,-99.99,,,-99.99,,2013-11-03 12:02:00,
2013-11-03 06:42:00,32.0,32.0,-100.00,South,180,6.0,9.0,99,-99.99,,,-99.99,,2013-11-03 12:42:00,
2013-11-03 06:52:00,32.0,32.0,-100.00,South,180,6.0,9.0,99,-99.99,,,-99.99,,2013-11-03 12:52:00,
2013-11-03 07:02:00,32.0,32.0,-100.00,South,180,6.0,9.0,99,-99.99,,,-99.99,,2013-11-03 13:02:00,
2013-11-03 07:22:00,32.0,32.0,-100.00,South,180,3.0,7.0,99,-99.99,,,-99.99,,2013-11-03 13:22:00,
2013-11-03 07:32:00,32.0,32.0,-100.00,South,180,3.0,7.0,99,-99.99,,,-99.99,,2013-11-03 13:32:00,
2013-11-03 07:42:00,32.0,32.0,-100.00,South,180,3.0,7.0,99,-99.99,,,-99.99,,2013-11-03 13:42:00,
2013-11-03 07:52:00,32.0,32.0,-100.00,South,180,3.0,7.0,99,-99.99,,,-99.99,,2013-11-03 13:52:00,
2013-11-03 08:02:00,32.0,32.0,-100.00,South,180,3.0,7.0,99,-99.99,,,-99.99,,2013-11-03 14:02:00,
2013-11-03 08:42:00,33.0,32.0,-100.00,SSE,160,6.0,9.0,99,-99.99,,,-99.99,,2013-11-03 14:42:00,
2013-11-03 08:52:00,33.0,32.0,-100.00,SSE,160,6.0,9.0,99,-99.99,,,-99.99,,2013-11-03 14:52:00,
2013-11-03 09:02:00,33.0,32.0,-100.00,SSE,160,6.0,9.0,99,-99.99,,,-99.99,,2013-11-03 15:02:00,
2013-11-03 09:22:00,34.0,34.0,-100.00,South,170,6.0,12.0,99,-99.99,,,-99.99,,2013-11-03 15:22:00,
2013-11-03 09:33:00,34.0,34.0,-100.00,South,170,6.0,12.0,99,-99.99,,,-99.99,,2013-11-03 15:33:00,
2013-11-03 09:43:00,34.0,34.0,-100.00,South,170,6.0,12.0,99,-99.99,,,-99.99,,2013-11-03 15:43:00,
2013-11-03 09:53:00,34.0,34.0,-100.00,South,170,6.0,12.0,99,-99.99,,,-99.99,,2013-11-03 15:53:00,
2013-11-03 10:03:00,34.0,34.0,-100.00,South,170,6.0,12.0,99,-99.99,,,-99.99,,2013-11-03 16:03:00,
2013-11-03 10:43:00,35.0,35.0,-100.00,South,180,6.0,11.0,99,-99.99,,,-99.99,,2013-11-03 16:43:00,
2013-11-03 10:53:00,35.0,35.0,-100.00,South,180,6.0,11.0,99,-99.99,,,-99.99,,2013-11-03 16:53:00,
2013-11-03 11:03:00,35.0,35.0,-100.00,South,180,6.0,11.0,99,-99.99,,,-99.99,,2013-11-03 17:03:00,
2013-11-03 11:23:00,36.0,36.0,-100.00,SSE,165,6.0,13.0,99,-99.99,,,-99.99,,2013-11-03 17:23:00,
2013-11-03 11:44:00,37.0,37.0,-100.00,SSE,165,8.0,14.0,99,-99.99,,,-99.99,,2013-11-03 17:44:00,
2013-11-03 11:53:00,37.0,37.0,-100.00,SSE,165,8.0,14.0,99,-99.99,,,-99.99,,2013-11-03 17:53:00,
2013-11-03 12:02:00,37.0,37.0,-100.00,SSE,165,8.0,14.0,99,-99.99,,,-99.99,,2013-11-03 18:02:00,
2013-11-03 12:23:00,39.0,33.0,-100.00,SSE,160,9.0,14.0,79,-99.99,,,-99.99,,2013-11-03 18:23:00,
2013-11-03 12:42:00,39.0,33.0,-100.00,South,170,7.0,14.0,79,-99.99,,,-99.99,,2013-11-03 18:42:00,
2013-11-03 12:52:00,39.0,33.0,-100.00,South,170,7.0,14.0,79,-99.99,,,-99.99,,2013-11-03 18:52:00,
2013-11-03 13:01:00,39.0,33.0,-100.00,South,170,7.0,14.0,79,-99.99,,,-99.99,,2013-11-03 19:01:00,
2013-11-03 14:22:00,43.0,31.0,-100.00,SSE,165,7.0,15.0,62,-99.99,,,-99.99,,2013-11-03 20:22:00,
2013-11-03 14:32:00,43.0,31.0,-100.00,SSE,165,7.0,15.0,62,-99.99,,,-99.99,,2013-11-03 20:32:00,
2013-11-03 14:42:00,43.0,31.0,-100.00,SSE,165,7.0,15.0,62,-99.99,,,-99.99,,2013-11-03 20:42:00,
2013-11-03 14:52:00,43.0,31.0,-100.00,SSE,165,7.0,15.0,62,-99.99,,,-99.99,,2013-11-03 20:52:00,
2013-11-03 15:02:00,43.0,31.0,-100.00,SSE,165,7.0,15.0,62,-99.99,,,-99.99,,2013-11-03 21:02:00,
2013-11-03 15:43:00,41.0,29.0,-100.00,SSE,165,4.0,14.0,61,-99.99,,,-99.99,,2013-11-03 21:43:00,
2013-11-03 15:55:00,41.0,29.0,-100.00,SSE,165,4.0,14.0,61,-99.99,,,-99.99,,2013-11-03 21:55:00,
2013-11-03 16:03:00,41.0,29.0,-100.00,SSE,165,4.0,14.0,61,-99.99,,,-99.99,,2013-11-03 22:03:00,
2013-11-03 16:43:00,41.0,28.0,-100.00,SSE,155,11.0,19.0,59,-99.99,,,-99.99,,2013-11-03 22:43:00,
2013-11-03 16:52:00,41.0,28.0,-100.00,SSE,155,11.0,19.0,59,-99.99,,,-99.99,,2013-11-03 22:52:00,
2013-11-03 17:02:00,41.0,28.0,-100.00,SSE,155,11.0,19.0,59,-99.99,,,-99.99,,2013-11-03 23:02:00,
2013-11-03 17:23:00,40.0,28.0,-100.00,SSE,155,7.0,16.0,62,-99.99,,,-99.99,,2013-11-03 23:23:00,
2013-11-03 17:34:00,40.0,28.0,-100.00,SSE,155,7.0,16.0,62,-99.99,,,-99.99,,2013-11-03 23:34:00,
2013-11-03 17:42:00,40.0,28.0,-100.00,SSE,155,7.0,16.0,62,-99.99,,,-99.99,,2013-11-03 23:42:00,
2013-11-03 17:53:00,40.0,28.0,-100.00,SSE,155,7.0,16.0,62,-99.99,,,-99.99,,2013-11-03 23:53:00,
2013-11-03 18:01:00,40.0,28.0,-100.00,SSE,155,7.0,16.0,62,-99.99,,,-99.99,,2013-11-04 00:01:00,
2013-11-03 18:22:00,40.0,28.0,-100.00,SSE,160,11.0,21.0,61,-99.99,,,-99.99,,2013-11-04 00:22:00,
2013-11-03 18:32:00,40.0,28.0,-100.00,SSE,160,11.0,21.0,61,-99.99,,,-99.99,,2013-11-04 00:32:00,
2013-11-03 18:42:00,40.0,28.0,-100.00,SSE,160,11.0,21.0,61,-99.99,,,-99.99,,2013-11-04 00:42:00,
2013-11-03 18:52:00,40.0,28.0,-100.00,SSE,160,11.0,21.0,61,-99.99,,,-99.99,,2013-11-04 00:52:00,
2013-11-03 19:02:00,40.0,28.0,-100.00,SSE,160,11.0,21.0,61,-99.99,,,-99.99,,2013-11-04 01:02:00,
2013-11-03 19:42:00,40.0,30.0,-100.00,SSE,150,9.0,17.0,68,-99.99,,,-99.99,,2013-11-04 01:42:00,
2013-11-03 19:52:00,40.0,30.0,-100.00,SSE,150,9.0,17.0,68,-99.99,,,-99.99,,2013-11-04 01:52:00,
2013-11-03 20:02:00,40.0,30.0,-100.00,SSE,150,9.0,17.0,68,-99.99,,,-99.99,,2013-11-04 02:02:00,
2013-11-03 21:44:00,39.0,33.0,-100.00,SSE,160,12.0,23.0,79,-99.99,,,-99.99,,2013-11-04 03:44:00,
2013-11-03 21:54:00,39.0,33.0,-100.00,SSE,160,12.0,23.0,79,-99.99,,,-99.99,,2013-11-04 03:54:00,
2013-11-03 22:04:00,39.0,33.0,-100.00,SSE,160,12.0,23.0,79,-99.99,,,-99.99,,2013-11-04 04:04:00,
2013-11-03 22:24:00,40.0,33.0,-100.00,SSE,160,12.0,25.0,77,-99.99,,,-99.99,,2013-11-04 04:24:00,
2013-11-03 22:34:00,40.0,33.0,-100.00,SSE,160,12.0,25.0,77,-99.99,,,-99.99,,2013-11-04 04:34:00,
2013-11-03 22:43:00,40.0,33.0,-100.00,SSE,160,12.0,25.0,77,-99.99,,,-99.99,,2013-11-04 04:43:00,
2013-11-03 22:53:00,40.0,33.0,-100.00,SSE,160,12.0,25.0,77,-99.99,,,-99.99,,2013-11-04 04:53:00,
2013-11-03 23:03:00,40.0,33.0,-100.00,SSE,160,12.0,25.0,77,-99.99,,,-99.99,,2013-11-04 05:03:00,
2013-11-03 23:24:00,40.0,33.0,-100.00,SSE,155,10.0,22.0,76,-99.99,,,-99.99,,2013-11-04 05:24:00,
2013-11-03 23:34:00,40.0,33.0,-100.00,SSE,155,10.0,22.0,76,-99.99,,,-99.99,,2013-11-04 05:34:00,
2013-11-03 23:44:00,40.0,33.0,-100.00,SSE,155,10.0,22.0,76,-99.99,,,-99.99,,2013-11-04 05:44:00,
2013-11-03 23:53:00,40.0,33.0,-100.00,SSE,155,10.0,22.0,76,-99.99,,,-99.99,,2013-11-04 05:53:00,